Wakeman, Ohio
Current Conditions -  °F | °C
As of 6:53 PM on Friday 31 Oct 2014 (Local Time) from KLPR Reporting Station
Overcast Overcast  
Wind Chill:   Ceiling: 3500
Heat Index:   Visibility: 9mi
Dew Point:   Wind: 0mph
Humidity: 86%   Direction: NA
Pressure: 29.89"   Gusts: NA
Location:  41.25°N, 82.4°W
Report Text: KLPR 312253Z AUTO 00000KT 9SM SCT030 OVC035 06/04 A2989 RMK AO2 RAE52 SLP126 P0000 T00610039 TSNO
Loading
Personal Weather Stations






























Interactive Weather Map
Tropical Storm Tracking
New forecast layout! Learn more

10-Day Weather Forecast

Advertisements
Track Severe Weather on mobile